Time;durP1;ratioP1;P1;durP2;ratioP2;P2;SDS_P1;SDS_P2;PMS_P1;PMS_P2;Temp;Humidity;BMP_temperature;BMP_pressure;BME280_temperature;BME280_humidity;BME280_pressure;Samples;Min_cycle;Max_cycle;Signal;HPM_P1;HPM_P2
2024/02/07 00:01:11;;;;;;;3.20;1.40;;;;;;;10.16;65.67;98879.65;129770;1254;114789;-62
2024/02/07 00:04:17;;;;;;;3.30;1.30;;;;;;;10.15;65.58;98871.91;129512;1278;114894;-62
2024/02/07 00:07:19;;;;;;;2.90;1.40;;;;;;;10.13;65.64;98864.01;129704;1259;114778;-64
2024/02/07 00:10:21;;;;;;;4.30;1.20;;;;;;;10.11;65.72;98860.56;129757;1256;114772;-64
2024/02/07 00:13:23;;;;;;;5.90;1.60;;;;;;;10.10;65.66;98855.34;129718;1259;114814;-63
2024/02/07 00:16:25;;;;;;;3.30;1.90;;;;;;;10.09;65.38;98850.94;129732;1260;115384;-63
2024/02/07 00:19:27;;;;;;;4.80;1.50;;;;;;;10.08;65.71;98847.81;129755;1256;114699;-63
2024/02/07 00:22:29;;;;;;;3.90;1.20;;;;;;;10.07;65.88;98848.44;129615;1278;128459;-64
2024/02/07 00:25:31;;;;;;;3.30;1.30;;;;;;;10.06;65.82;98846.52;129761;1259;114726;-63
2024/02/07 00:28:33;;;;;;;2.00;1.00;;;;;;;10.04;65.86;98844.69;129794;1278;114716;-63
2024/02/07 00:31:35;;;;;;;4.00;1.20;;;;;;;10.02;65.98;98842.14;129724;1259;114738;-63
2024/02/07 00:34:37;;;;;;;3.50;1.60;;;;;;;10.02;65.87;98839.33;129800;1259;114821;-63
2024/02/07 00:37:39;;;;;;;4.60;1.50;;;;;;;10.00;65.89;98836.23;129764;1259;114728;-64
2024/02/07 00:40:41;;;;;;;3.10;1.10;;;;;;;9.98;66.04;98840.62;129645;1259;114825;-63
2024/02/07 00:43:43;;;;;;;2.70;1.50;;;;;;;9.98;65.99;98834.44;129692;1259;114709;-63
2024/02/07 00:46:45;;;;;;;3.30;1.40;;;;;;;9.97;65.93;98829.34;129840;1256;114847;-64
2024/02/07 00:49:47;;;;;;;3.50;1.60;;;;;;;9.96;66.13;98825.78;129660;1262;114933;-63
2024/02/07 00:52:49;;;;;;;3.00;1.20;;;;;;;9.96;66.09;98822.10;129828;1273;114821;-63
2024/02/07 00:55:51;;;;;;;4.70;1.10;;;;;;;9.95;65.89;98815.72;129776;1271;114735;-63
2024/02/07 00:58:53;;;;;;;2.70;1.50;;;;;;;9.95;66.33;98811.83;129471;1259;114883;-62
2024/02/07 01:01:55;;;;;;;2.70;0.80;;;;;;;9.94;66.26;98811.14;129832;1259;114744;-63
2024/02/07 01:04:59;;;;;;;3.60;1.30;;;;;;;9.94;65.99;98805.63;129893;1256;115719;-63
2024/02/07 01:08:01;;;;;;;2.00;1.10;;;;;;;9.94;66.21;98800.65;129767;1261;128716;-64
2024/02/07 01:11:03;;;;;;;1.90;1.20;;;;;;;9.93;66.30;98798.23;129804;1260;114720;-64
2024/02/07 01:14:05;;;;;;;2.60;1.00;;;;;;;9.92;66.24;98795.47;129908;1259;114724;-64
2024/02/07 01:17:07;;;;;;;2.10;1.40;;;;;;;9.90;66.26;98794.48;129599;1278;114822;-63
2024/02/07 01:20:10;;;;;;;2.50;1.30;;;;;;;9.89;66.25;98791.54;129755;1278;114958;-64
2024/02/07 01:23:12;;;;;;;3.30;1.00;;;;;;;9.87;66.23;98789.49;130220;1259;115084;-65
2024/02/07 01:26:14;;;;;;;4.20;1.50;;;;;;;9.86;66.31;98785.13;129682;1259;207963;-65
2024/02/07 01:29:16;;;;;;;1.80;1.20;;;;;;;9.85;66.20;98787.33;130092;1257;128053;-65
2024/02/07 01:32:18;;;;;;;2.60;1.10;;;;;;;9.84;66.40;98787.25;130022;1275;114754;-64
2024/02/07 01:35:21;;;;;;;3.10;1.00;;;;;;;9.83;66.36;98784.23;130038;1262;115531;-65
2024/02/07 01:38:23;;;;;;;2.60;1.30;;;;;;;9.82;66.24;98783.65;129475;1278;115413;-64
2024/02/07 01:41:28;;;;;;;3.30;1.30;;;;;;;9.80;66.30;98778.23;130177;1259;114812;-64
2024/02/07 01:44:31;;;;;;;2.10;1.20;;;;;;;9.79;66.24;98776.02;129983;1279;114907;-65
2024/02/07 01:47:33;;;;;;;3.70;1.40;;;;;;;9.77;66.39;98773.30;129928;1262;114839;-65
2024/02/07 01:50:37;;;;;;;2.80;1.60;;;;;;;9.76;66.48;98772.14;129933;1270;115311;-64
2024/02/07 01:53:40;;;;;;;4.50;1.30;;;;;;;9.74;66.85;98767.61;129797;1265;114709;-65
2024/02/07 01:56:43;;;;;;;2.00;1.00;;;;;;;9.72;66.46;98757.38;129730;1262;116366;-65
2024/02/07 01:59:45;;;;;;;4.20;1.70;;;;;;;9.70;66.76;98754.52;130017;1260;114743;-64
2024/02/07 02:02:48;;;;;;;4.90;1.20;;;;;;;9.68;66.80;98750.54;129739;1277;115199;-65
2024/02/07 02:05:50;;;;;;;3.20;1.30;;;;;;;9.67;66.72;98744.05;130750;1262;114690;-64
2024/02/07 02:08:54;;;;;;;2.90;1.40;;;;;;;9.66;66.76;98742.89;130327;1257;114946;-64
2024/02/07 02:11:57;;;;;;;3.00;1.40;;;;;;;9.65;66.88;98734.95;130104;1262;115015;-65
2024/02/07 02:14:59;;;;;;;3.20;1.10;;;;;;;9.65;66.81;98734.95;129983;1256;114810;-65
2024/02/07 02:18:00;;;;;;;2.40;1.10;;;;;;;9.64;66.94;98731.08;129956;1262;115307;-65
2024/02/07 02:21:04;;;;;;;3.80;1.10;;;;;;;9.62;66.90;98728.71;129993;1270;114714;-63
2024/02/07 02:24:35;;;;;;;2.50;1.00;;;;;;;9.61;66.89;98724.69;129520;1263;114833;-64
2024/02/07 02:27:50;;;;;;;2.50;1.00;;;;;;;9.60;67.11;98723.13;129462;1279;128604;-63
2024/02/07 02:30:58;;;;;;;2.30;1.00;;;;;;;9.60;67.04;98712.30;129478;1263;114824;-63
2024/02/07 02:34:01;;;;;;;2.90;1.20;;;;;;;9.59;66.93;98705.72;129518;1263;114862;-63
2024/02/07 02:37:04;;;;;;;5.10;1.20;;;;;;;9.58;66.95;98699.79;129734;1260;114715;-63
2024/02/07 02:40:07;;;;;;;2.60;0.90;;;;;;;9.58;66.98;98700.32;129719;1273;114709;-63
2024/02/07 02:43:12;;;;;;;1.50;0.90;;;;;;;9.57;66.94;98694.29;129780;1260;114845;-63
2024/02/07 02:46:14;;;;;;;3.30;1.00;;;;;;;9.56;67.08;98691.52;129559;1279;115024;-62
2024/02/07 02:49:16;;;;;;;4.10;1.70;;;;;;;9.56;67.05;98686.55;129756;1260;115953;-62
2024/02/07 02:52:19;;;;;;;2.60;1.60;;;;;;;9.56;67.06;98683.68;130015;1267;115224;-62
2024/02/07 02:55:21;;;;;;;2.00;1.00;;;;;;;9.56;67.19;98678.48;129902;1261;114715;-63
2024/02/07 02:58:29;;;;;;;4.60;1.30;;;;;;;9.56;67.23;98675.45;129624;1264;114806;-63
2024/02/07 03:01:32;;;;;;;8.70;1.50;;;;;;;9.56;67.35;98674.59;129486;1270;127999;-63
2024/02/07 03:04:41;;;;;;;3.10;1.30;;;;;;;9.55;67.52;98670.35;129490;1276;114924;-62
2024/02/07 03:08:05;;;;;;;1.60;1.00;;;;;;;9.54;67.56;98674.02;129659;1270;114744;-62
2024/02/07 03:11:08;;;;;;;4.70;1.40;;;;;;;9.52;67.52;98667.55;129686;1260;114773;-63
2024/02/07 03:14:11;;;;;;;3.00;1.60;;;;;;;9.52;67.76;98669.70;129844;1263;114711;-62
2024/02/07 03:17:13;;;;;;;2.40;1.20;;;;;;;9.53;67.61;98664.64;129810;1262;115249;-63
2024/02/07 03:20:15;;;;;;;2.90;1.10;;;;;;;9.52;67.69;98662.39;129761;1262;114798;-63
2024/02/07 03:23:17;;;;;;;2.20;0.90;;;;;;;9.52;67.87;98653.34;129626;1264;114808;-63
2024/02/07 03:26:19;;;;;;;3.90;1.10;;;;;;;9.51;67.92;98652.67;129555;1265;114764;-63
2024/02/07 03:29:22;;;;;;;3.30;1.40;;;;;;;9.50;67.76;98644.20;129666;1279;114769;-62
2024/02/07 03:32:24;;;;;;;2.90;1.00;;;;;;;9.49;67.99;98640.88;129644;1271;114903;-63
2024/02/07 03:35:26;;;;;;;2.00;1.10;;;;;;;9.49;68.13;98633.93;129731;1270;114664;-62
2024/02/07 03:38:28;;;;;;;2.20;1.10;;;;;;;9.48;68.01;98628.67;129517;1279;128413;-63
2024/02/07 03:41:30;;;;;;;3.40;1.10;;;;;;;9.47;68.21;98627.33;129604;1275;115069;-63
2024/02/07 03:44:33;;;;;;;4.50;1.80;;;;;;;9.46;68.32;98624.69;129835;1279;114917;-64
2024/02/07 03:47:39;;;;;;;2.60;1.20;;;;;;;9.45;68.24;98619.80;129739;1260;114967;-63
2024/02/07 03:50:41;;;;;;;4.20;1.60;;;;;;;9.44;68.37;98616.65;129690;1260;115292;-63
2024/02/07 03:53:44;;;;;;;3.10;1.10;;;;;;;9.42;68.50;98611.58;129656;1262;115256;-63
2024/02/07 03:56:46;;;;;;;2.60;1.20;;;;;;;9.42;68.32;98603.95;129627;1263;114974;-63
2024/02/07 03:59:48;;;;;;;2.50;1.10;;;;;;;9.41;68.60;98604.77;129634;1270;114737;-63
2024/02/07 04:02:51;;;;;;;3.60;1.70;;;;;;;9.40;68.45;98602.70;129531;1263;114787;-64
2024/02/07 04:05:53;;;;;;;3.20;1.50;;;;;;;9.39;68.63;98598.45;129584;1262;114675;-65
2024/02/07 04:08:55;;;;;;;4.80;1.20;;;;;;;9.37;68.65;98597.18;129467;1257;115150;-63
2024/02/07 05:18:21;;;;;;;2.30;1.50;;;;;;;9.35;69.43;98522.66;129701;1260;114865;-63
2024/02/07 05:21:23;;;;;;;2.50;0.80;;;;;;;9.36;69.54;98525.29;129686;1260;114718;-63
2024/02/07 05:24:26;;;;;;;2.30;0.80;;;;;;;9.37;69.58;98527.87;129650;1272;115050;-64
2024/02/07 05:27:32;;;;;;;2.80;1.10;;;;;;;9.38;69.50;98525.50;129591;1263;115193;-63
2024/02/07 05:30:33;;;;;;;2.00;1.10;;;;;;;9.38;69.49;98527.23;129697;1260;115688;-64
2024/02/07 05:33:35;;;;;;;1.80;1.20;;;;;;;9.38;69.62;98524.73;129658;1270;114715;-64
2024/02/07 05:36:38;;;;;;;2.00;1.00;;;;;;;9.39;69.80;98527.71;129658;1261;114980;-63
2024/02/07 05:39:39;;;;;;;2.50;1.20;;;;;;;9.40;69.72;98526.58;129417;1271;114839;-63
2024/02/07 05:42:41;;;;;;;3.00;1.20;;;;;;;9.41;69.80;98524.59;129534;1261;114776;-62
2024/02/07 05:45:43;;;;;;;3.90;1.10;;;;;;;9.41;69.65;98526.14;129655;1270;114831;-62
2024/02/07 05:48:45;;;;;;;5.40;1.40;;;;;;;9.42;69.64;98523.22;129547;1264;114872;-63
2024/02/07 05:51:59;;;;;;;2.30;1.20;;;;;;;9.42;69.79;98525.33;129615;1261;114780;-63
2024/02/07 05:55:01;;;;;;;3.10;1.20;;;;;;;9.43;69.71;98527.27;129548;1267;114776;-63
2024/02/07 05:58:03;;;;;;;4.40;0.90;;;;;;;9.43;69.80;98525.48;129748;1263;114683;-64
2024/02/07 06:01:08;;;;;;;2.80;1.10;;;;;;;9.44;69.87;98530.05;129767;1256;115496;-63
2024/02/07 06:04:11;;;;;;;6.20;1.20;;;;;;;9.44;70.07;98527.40;129607;1279;128579;-64
2024/02/07 06:07:13;;;;;;;2.30;1.10;;;;;;;9.43;69.93;98526.71;129994;1261;115224;-63
2024/02/07 06:10:16;;;;;;;4.10;1.60;;;;;;;9.42;69.97;98518.63;129926;1270;115211;-64
2024/02/07 06:13:18;;;;;;;2.90;1.20;;;;;;;9.41;69.99;98520.12;129820;1260;115416;-63
2024/02/07 06:16:21;;;;;;;3.50;1.20;;;;;;;9.41;70.00;98520.48;129608;1270;114718;-63
2024/02/07 06:19:23;;;;;;;3.10;1.50;;;;;;;9.40;69.99;98525.85;129808;1258;114839;-64
2024/02/07 06:22:26;;;;;;;2.10;1.30;;;;;;;9.39;70.06;98521.83;130098;1258;114723;-63
2024/02/07 06:25:28;;;;;;;2.40;1.20;;;;;;;9.39;69.99;98520.96;129677;1263;128866;-65
2024/02/07 06:28:29;;;;;;;3.10;1.30;;;;;;;9.38;69.99;98519.23;130088;1257;115528;-64
2024/02/07 06:31:31;;;;;;;4.30;1.60;;;;;;;9.38;70.02;98514.77;129720;1261;114777;-65
2024/02/07 06:34:34;;;;;;;1.70;0.90;;;;;;;9.39;70.16;98513.69;129930;1258;114689;-65
2024/02/07 06:37:37;;;;;;;2.00;0.90;;;;;;;9.38;70.01;98517.09;129757;1261;114709;-63
2024/02/07 06:40:39;;;;;;;3.10;1.20;;;;;;;9.38;70.00;98516.91;129882;1260;114741;-64
2024/02/07 06:43:41;;;;;;;3.40;1.20;;;;;;;9.40;70.02;98514.33;129887;1279;114862;-62
2024/02/07 06:46:44;;;;;;;2.20;1.00;;;;;;;9.40;70.02;98517.52;129630;1279;114738;-63
2024/02/07 06:49:46;;;;;;;2.40;1.10;;;;;;;9.40;70.03;98518.58;129570;1261;114862;-62
2024/02/07 06:52:48;;;;;;;2.70;1.20;;;;;;;9.41;70.10;98518.49;129725;1261;115171;-66
2024/02/07 06:55:50;;;;;;;2.40;1.50;;;;;;;9.41;69.98;98520.08;129711;1261;114854;-64
2024/02/07 06:58:53;;;;;;;3.50;1.30;;;;;;;9.43;70.06;98517.83;129554;1263;114936;-63
2024/02/07 07:01:55;;;;;;;3.50;1.50;;;;;;;9.43;69.93;98520.47;129665;1279;114771;-63
2024/02/07 07:04:57;;;;;;;3.00;1.70;;;;;;;9.45;69.84;98519.63;129719;1263;114833;-62
2024/02/07 07:07:59;;;;;;;3.00;1.00;;;;;;;9.46;69.67;98522.06;129449;1264;128424;-63
2024/02/07 07:11:01;;;;;;;1.90;1.10;;;;;;;9.48;69.70;98519.48;129673;1261;115341;-63
2024/02/07 07:14:04;;;;;;;3.30;1.70;;;;;;;9.48;69.58;98517.63;129672;1272;115263;-63
2024/02/07 07:17:06;;;;;;;4.40;1.90;;;;;;;9.49;69.62;98514.86;129496;1264;114809;-63
2024/02/07 07:20:09;;;;;;;3.40;1.60;;;;;;;9.51;69.62;98513.11;129805;1261;115236;-63
2024/02/07 07:23:11;;;;;;;3.70;1.30;;;;;;;9.54;69.59;98516.09;129483;1272;114712;-63
2024/02/07 07:26:13;;;;;;;2.60;1.30;;;;;;;9.56;69.55;98517.92;129909;1279;114728;-64
2024/02/07 07:29:17;;;;;;;5.10;1.70;;;;;;;9.59;69.57;98518.43;129445;1279;126889;-63
2024/02/07 07:32:19;;;;;;;4.50;0.90;;;;;;;9.62;69.48;98515.20;129852;1260;114820;-64
2024/02/07 07:35:21;;;;;;;3.30;1.40;;;;;;;9.64;69.50;98506.98;129720;1270;114791;-64
2024/02/07 07:38:23;;;;;;;2.50;0.90;;;;;;;9.69;69.53;98508.07;129661;1270;114696;-64
2024/02/07 07:41:25;;;;;;;2.50;0.90;;;;;;;9.71;69.57;98500.09;129663;1258;114808;-64
2024/02/07 07:44:27;;;;;;;2.70;0.90;;;;;;;9.74;69.60;98500.77;129657;1261;114705;-64
2024/02/07 07:47:30;;;;;;;2.20;0.90;;;;;;;9.76;69.47;98500.05;129634;1264;115030;-63
2024/02/07 07:50:33;;;;;;;1.90;1.00;;;;;;;9.79;69.50;98499.50;129452;1270;129204;-64
2024/02/07 07:53:36;;;;;;;2.60;0.70;;;;;;;9.81;69.43;98498.11;129913;1260;114700;-64
2024/02/07 07:56:38;;;;;;;2.10;0.60;;;;;;;9.81;69.30;98494.28;129763;1260;115309;-64
2024/02/07 07:59:40;;;;;;;2.00;1.10;;;;;;;9.83;69.30;98494.20;129788;1260;114785;-64
2024/02/07 08:02:44;;;;;;;3.10;1.90;;;;;;;9.84;69.40;98496.80;129864;1260;114705;-63
2024/02/07 08:05:46;;;;;;;3.90;2.20;;;;;;;9.84;69.49;98497.98;129586;1270;115006;-65
2024/02/07 08:08:49;;;;;;;2.00;0.90;;;;;;;9.85;69.35;98505.41;129788;1272;114812;-64
2024/02/07 08:11:51;;;;;;;2.80;1.10;;;;;;;9.86;69.71;98509.66;129801;1257;114937;-64
2024/02/07 08:14:53;;;;;;;2.10;1.00;;;;;;;9.87;69.92;98518.67;129653;1260;114882;-64
2024/02/07 08:17:57;;;;;;;1.40;0.70;;;;;;;9.88;70.44;98522.13;129828;1260;114690;-63
2024/02/07 08:20:59;;;;;;;2.60;1.00;;;;;;;9.87;70.69;98531.29;129967;1261;114725;-64
2024/02/07 08:24:01;;;;;;;1.70;0.60;;;;;;;9.85;71.43;98559.63;129734;1270;114758;-64
2024/02/07 08:27:05;;;;;;;0.70;0.40;;;;;;;9.76;71.71;98566.72;129860;1263;115202;-64
2024/02/07 08:30:07;;;;;;;1.30;0.70;;;;;;;9.63;72.22;98584.27;129524;1261;127857;-64
2024/02/07 08:33:09;;;;;;;4.00;1.50;;;;;;;9.43;72.68;98590.00;129731;1260;114764;-64
2024/02/07 08:36:12;;;;;;;1.80;1.00;;;;;;;9.18;73.07;98582.86;129727;1260;114815;-64
2024/02/07 08:39:14;;;;;;;2.30;0.60;;;;;;;9.00;73.66;98598.58;129746;1261;114773;-64
2024/02/07 08:42:16;;;;;;;2.40;1.10;;;;;;;8.85;74.09;98607.07;129781;1261;114689;-64
2024/02/07 08:45:20;;;;;;;0.70;0.30;;;;;;;8.77;74.60;98604.80;129616;1273;114820;-64
2024/02/07 08:48:22;;;;;;;1.40;0.60;;;;;;;8.65;74.64;98612.90;129629;1256;114836;-64
2024/02/07 08:51:24;;;;;;;1.00;0.60;;;;;;;8.51;75.21;98621.52;130065;1257;114734;-63
2024/02/07 08:54:26;;;;;;;10.60;3.40;;;;;;;8.30;75.28;98626.99;129643;1270;114930;-63
2024/02/07 08:57:28;;;;;;;3.60;1.80;;;;;;;8.01;75.13;98635.14;129566;1261;114779;-63
2024/02/07 09:00:31;;;;;;;1.90;1.50;;;;;;;7.67;75.54;98646.56;129758;1258;114819;-63
2024/02/07 09:03:33;;;;;;;1.10;0.50;;;;;;;7.39;75.60;98657.19;129762;1271;114748;-63
2024/02/07 09:06:35;;;;;;;1.20;0.60;;;;;;;7.18;75.50;98662.55;129591;1260;114748;-63
2024/02/07 09:09:36;;;;;;;1.30;1.00;;;;;;;7.03;76.12;98662.59;129638;1271;114726;-63
2024/02/07 09:12:38;;;;;;;2.90;1.80;;;;;;;6.91;76.63;98671.14;130048;1279;114648;-62
2024/02/07 09:15:41;;;;;;;1.30;0.70;;;;;;;6.78;76.44;98679.38;129901;1263;114726;-63
2024/02/07 09:18:43;;;;;;;1.30;0.70;;;;;;;6.68;76.93;98685.98;129897;1258;114804;-62
2024/02/07 09:21:45;;;;;;;1.30;1.00;;;;;;;6.58;76.91;98691.35;129761;1260;114754;-62
2024/02/07 09:24:47;;;;;;;1.70;0.90;;;;;;;6.55;77.29;98698.27;129703;1258;114732;-62
2024/02/07 09:27:49;;;;;;;1.70;1.10;;;;;;;6.53;77.85;98703.53;129447;1261;114882;-62
2024/02/07 09:30:52;;;;;;;1.40;0.80;;;;;;;6.49;77.79;98713.19;129721;1259;114779;-63
2024/02/07 09:33:54;;;;;;;1.50;0.70;;;;;;;6.47;77.85;98718.47;129663;1261;117887;-63
2024/02/07 09:36:56;;;;;;;1.30;0.60;;;;;;;6.49;78.30;98719.25;129545;1279;115052;-62
2024/02/07 09:39:58;;;;;;;1.80;1.00;;;;;;;6.49;78.30;98721.89;129694;1256;114850;-63
2024/02/07 09:43:01;;;;;;;1.00;0.80;;;;;;;6.48;78.78;98730.44;129773;1259;114741;-63
2024/02/07 09:46:05;;;;;;;1.70;1.20;;;;;;;6.48;78.70;98737.71;129503;1279;114805;-62
2024/02/07 09:49:11;;;;;;;1.20;0.60;;;;;;;6.50;79.01;98746.45;129559;1263;114805;-63
2024/02/07 09:52:17;;;;;;;2.10;1.50;;;;;;;6.49;79.07;98748.64;129485;1279;128518;-62
2024/02/07 09:55:19;;;;;;;1.80;1.30;;;;;;;6.55;79.37;98756.16;129652;1267;114740;-63
2024/02/07 09:58:23;;;;;;;2.50;1.50;;;;;;;6.61;79.62;98758.27;129837;1258;115138;-63
2024/02/07 10:01:28;;;;;;;2.10;1.50;;;;;;;6.65;79.63;98766.02;129803;1256;114722;-63
2024/02/07 10:04:34;;;;;;;2.10;1.20;;;;;;;6.63;79.24;98767.16;129497;1257;114885;-63
2024/02/07 10:07:37;;;;;;;2.10;1.20;;;;;;;6.64;79.35;98775.10;129803;1270;128926;-63
2024/02/07 10:10:45;;;;;;;2.70;2.00;;;;;;;6.62;79.59;98776.12;129800;1261;114778;-64
2024/02/07 10:13:47;;;;;;;2.30;1.20;;;;;;;6.60;79.33;98782.28;129979;1258;114869;-63
2024/02/07 10:16:49;;;;;;;1.70;0.90;;;;;;;6.56;79.34;98783.91;129640;1257;114832;-63
2024/02/07 10:19:51;;;;;;;3.60;1.70;;;;;;;6.49;79.03;98789.76;130172;1257;114735;-63
2024/02/07 10:22:53;;;;;;;2.20;1.00;;;;;;;6.44;79.14;98790.09;129787;1258;114763;-64
2024/02/07 10:25:56;;;;;;;3.90;1.90;;;;;;;6.35;78.90;98792.90;129744;1261;114727;-63
2024/02/07 10:28:59;;;;;;;3.60;1.20;;;;;;;6.30;78.91;98796.39;129998;1260;114770;-63
2024/02/07 10:32:04;;;;;;;5.30;2.00;;;;;;;6.25;78.96;98798.80;129882;1270;114911;-63
2024/02/07 10:35:10;;;;;;;3.90;2.10;;;;;;;6.21;79.11;98799.54;129846;1270;114690;-63
2024/02/07 10:38:12;;;;;;;4.70;1.80;;;;;;;6.18;79.26;98807.86;129516;1260;114835;-63
2024/02/07 10:41:14;;;;;;;3.50;1.80;;;;;;;6.14;79.10;98816.92;129763;1257;114723;-64
2024/02/07 10:44:17;;;;;;;5.30;2.10;;;;;;;6.12;79.11;98817.42;129939;1259;116114;-64
2024/02/07 10:47:19;;;;;;;4.40;2.10;;;;;;;6.12;79.19;98815.46;129734;1278;115209;-63
2024/02/07 10:50:22;;;;;;;4.20;1.50;;;;;;;6.13;79.45;98809.93;130003;1259;114799;-64
2024/02/07 10:53:28;;;;;;;6.70;2.50;;;;;;;6.15;79.71;98806.56;129655;1258;114762;-63
2024/02/07 10:56:35;;;;;;;7.30;2.80;;;;;;;6.18;79.79;98806.61;129630;1260;114832;-64
2024/02/07 10:59:39;;;;;;;2.50;1.10;;;;;;;6.17;79.48;98809.83;129846;1270;128220;-64
2024/02/07 11:02:42;;;;;;;3.00;1.40;;;;;;;6.15;79.57;98806.23;129586;1264;114830;-64
2024/02/07 11:05:44;;;;;;;3.70;1.30;;;;;;;6.21;79.87;98804.50;129635;1270;114804;-72
2024/02/07 11:08:46;;;;;;;8.40;3.10;;;;;;;6.24;79.72;98812.11;129635;1257;114775;-66
2024/02/07 11:11:48;;;;;;;5.70;2.60;;;;;;;6.31;79.87;98819.02;130370;1261;114830;-67
2024/02/07 11:14:51;;;;;;;20.30;8.20;;;;;;;6.38;79.65;98822.54;130194;1270;114748;-68
2024/02/07 11:17:53;;;;;;;14.10;6.20;;;;;;;6.46;79.90;98819.95;130335;1260;128073;-67
2024/02/07 11:20:56;;;;;;;5.70;3.80;;;;;;;6.51;79.61;98824.12;130345;1275;114698;-68
2024/02/07 11:24:00;;;;;;;11.60;5.20;;;;;;;6.56;79.64;98820.46;130167;1261;114805;-68
2024/02/07 11:27:02;;;;;;;35.80;12.40;;;;;;;6.62;79.92;98819.95;130284;1259;114764;-66
2024/02/07 11:30:10;;;;;;;7.60;3.30;;;;;;;6.67;79.70;98820.89;130434;1259;115054;-65
2024/02/07 11:33:12;;;;;;;12.20;4.30;;;;;;;6.69;79.39;98823.82;130112;1259;115010;-68
2024/02/07 11:36:17;;;;;;;11.60;5.60;;;;;;;6.69;79.16;98830.20;130032;1273;114759;-67
2024/02/07 11:39:19;;;;;;;13.90;5.90;;;;;;;6.66;79.08;98837.25;130152;1260;116378;-67
2024/02/07 11:42:24;;;;;;;12.10;5.10;;;;;;;6.71;79.42;98842.14;130193;1259;114690;-66
2024/02/07 11:45:27;;;;;;;8.40;4.30;;;;;;;6.75;79.32;98841.40;129905;1263;114997;-67
2024/02/07 11:48:28;;;;;;;10.50;4.70;;;;;;;6.78;79.24;98844.22;130209;1259;114808;-68
2024/02/07 11:51:33;;;;;;;9.70;4.60;;;;;;;6.82;79.43;98847.20;130165;1259;114737;-65
2024/02/07 11:54:36;;;;;;;9.60;4.10;;;;;;;6.88;79.26;98855.55;130342;1259;115438;-68
2024/02/07 11:57:43;;;;;;;7.60;3.30;;;;;;;6.88;78.93;98858.58;130067;1262;114840;-67
2024/02/07 12:00:46;;;;;;;9.10;3.20;;;;;;;6.86;78.99;98863.27;130221;1256;115410;-67
2024/02/07 12:03:55;;;;;;;12.00;4.20;;;;;;;6.83;78.96;98861.84;130201;1261;114839;-67
2024/02/07 12:06:57;;;;;;;8.70;3.70;;;;;;;6.81;79.04;98861.77;130352;1268;128105;-67
2024/02/07 12:09:59;;;;;;;9.00;3.40;;;;;;;6.82;79.27;98864.40;130071;1261;114731;-67
2024/02/07 12:13:01;;;;;;;13.60;4.70;;;;;;;6.80;79.49;98858.99;130027;1262;114761;-68
2024/02/07 12:16:10;;;;;;;6.90;2.90;;;;;;;6.79;79.26;98855.34;130174;1270;114744;-68
2024/02/07 12:19:12;;;;;;;4.60;2.40;;;;;;;6.81;79.55;98862.50;130309;1260;114693;-67
2024/02/07 12:22:20;;;;;;;6.50;2.80;;;;;;;6.80;79.47;98861.83;130209;1259;116465;-67
2024/02/07 12:25:22;;;;;;;5.90;2.50;;;;;;;6.76;79.16;98864.92;130017;1256;127561;-67
2024/02/07 12:28:27;;;;;;;6.10;2.60;;;;;;;6.73;79.39;98865.64;130107;1259;115193;-66
2024/02/07 12:31:29;;;;;;;7.30;2.20;;;;;;;6.72;79.37;98865.32;130010;1259;114854;-63
2024/02/07 12:34:31;;;;;;;6.00;2.80;;;;;;;6.75;79.55;98867.08;129518;1258;114785;-62
2024/02/07 12:37:34;;;;;;;3.20;1.60;;;;;;;6.77;79.51;98872.52;130061;1257;115014;-62
2024/02/07 12:40:36;;;;;;;6.40;2.20;;;;;;;6.74;79.47;98870.52;129713;1259;114731;-62
2024/02/07 12:43:39;;;;;;;7.70;2.70;;;;;;;6.71;79.50;98868.22;129765;1259;114726;-62
2024/02/07 12:46:42;;;;;;;3.30;1.30;;;;;;;6.68;79.53;98869.96;129742;1261;115401;-62
2024/02/07 12:49:45;;;;;;;3.40;1.10;;;;;;;6.63;79.42;98866.17;129910;1272;114792;-62
2024/02/07 12:52:47;;;;;;;4.60;1.10;;;;;;;6.61;79.68;98868.77;129694;1274;114812;-62
2024/02/07 12:55:52;;;;;;;5.70;3.40;;;;;;;6.61;79.65;98869.15;129862;1259;114796;-62
2024/02/07 12:58:55;;;;;;;4.80;2.70;;;;;;;6.55;79.60;98869.96;129809;1259;115372;-63
2024/02/07 13:01:58;;;;;;;7.40;3.30;;;;;;;6.51;79.53;98873.39;129478;1259;114728;-62
2024/02/07 13:05:01;;;;;;;9.10;4.80;;;;;;;6.51;79.59;98869.86;129598;1278;114715;-62
2024/02/07 13:08:04;;;;;;;8.90;4.00;;;;;;;6.52;79.52;98870.55;129757;1261;114843;-62
2024/02/07 13:11:07;;;;;;;7.60;4.40;;;;;;;6.50;79.41;98872.92;129939;1259;114681;-63
2024/02/07 13:14:10;;;;;;;6.00;3.10;;;;;;;6.47;79.26;98877.02;129637;1276;114798;-62
2024/02/07 13:17:12;;;;;;;13.70;6.50;;;;;;;6.40;79.26;98870.98;129826;1259;114780;-61
2024/02/07 13:20:15;;;;;;;5.50;2.90;;;;;;;6.36;79.45;98858.11;129901;1275;114779;-62
2024/02/07 13:23:23;;;;;;;4.70;2.10;;;;;;;6.35;79.78;98854.60;129601;1260;114890;-62
2024/02/07 13:26:25;;;;;;;2.10;1.30;;;;;;;6.36;79.61;98844.27;129421;1263;217336;-63
2024/02/07 13:29:27;;;;;;;3.40;1.70;;;;;;;6.33;79.18;98846.20;129864;1259;114789;-62
2024/02/07 13:32:30;;;;;;;6.50;4.50;;;;;;;6.29;79.19;98848.38;129946;1259;115319;-63
2024/02/07 13:35:33;;;;;;;7.10;3.40;;;;;;;6.27;79.41;98837.33;129717;1259;114683;-63
2024/02/07 13:38:35;;;;;;;2.80;1.50;;;;;;;6.27;79.68;98837.70;129865;1259;114721;-63
2024/02/07 13:41:37;;;;;;;2.20;1.10;;;;;;;6.28;79.40;98850.60;129887;1257;114765;-63
2024/02/07 13:44:39;;;;;;;2.40;1.20;;;;;;;6.28;79.39;98856.44;130065;1259;114773;-63
2024/02/07 13:47:41;;;;;;;2.60;0.90;;;;;;;6.28;79.47;98855.89;129719;1255;114891;-63
2024/02/07 13:50:44;;;;;;;2.60;1.70;;;;;;;6.28;79.08;98852.03;129779;1257;114709;-63
2024/02/07 13:53:46;;;;;;;3.10;1.10;;;;;;;6.22;78.97;98853.18;129969;1259;114729;-64
2024/02/07 13:56:48;;;;;;;3.30;1.60;;;;;;;6.19;79.17;98855.10;129878;1275;114712;-63
2024/02/07 13:59:50;;;;;;;4.30;1.50;;;;;;;6.19;79.13;98855.48;129854;1256;114779;-63
2024/02/07 14:02:52;;;;;;;3.30;1.60;;;;;;;6.17;79.18;98862.52;129931;1275;115317;-63
2024/02/07 14:05:54;;;;;;;3.50;2.10;;;;;;;6.14;78.99;98865.34;129535;1278;114985;-63
2024/02/07 14:08:56;;;;;;;3.80;2.60;;;;;;;6.08;78.86;98869.17;129828;1259;114714;-62
2024/02/07 14:11:59;;;;;;;3.00;1.50;;;;;;;6.02;78.86;98869.86;129769;1259;114726;-63
2024/02/07 14:15:01;;;;;;;3.30;1.20;;;;;;;5.96;78.70;98872.48;129816;1270;115086;-63
2024/02/07 14:18:04;;;;;;;4.10;2.30;;;;;;;5.91;78.98;98874.30;129499;1259;114870;-63
2024/02/07 14:21:07;;;;;;;3.70;2.30;;;;;;;5.85;78.96;98882.77;129760;1257;114786;-61
2024/02/07 14:24:09;;;;;;;3.20;1.60;;;;;;;5.78;78.98;98892.52;129816;1259;115578;-62
2024/02/07 14:27:13;;;;;;;5.40;3.50;;;;;;;5.71;78.81;98898.92;129972;1259;115327;-63
2024/02/07 14:30:17;;;;;;;3.30;1.80;;;;;;;5.67;79.02;98897.20;129858;1259;114771;-62
2024/02/07 14:33:19;;;;;;;4.70;2.90;;;;;;;5.61;78.87;98896.63;129895;1259;114717;-62
2024/02/07 14:36:21;;;;;;;4.30;1.70;;;;;;;5.57;78.98;98891.70;129604;1257;114771;-61
2024/02/07 14:39:23;;;;;;;3.20;1.90;;;;;;;5.55;79.29;98891.23;129886;1259;114737;-63
2024/02/07 14:42:26;;;;;;;3.50;2.00;;;;;;;5.56;79.34;98895.61;129552;1262;114799;-63
2024/02/07 14:45:28;;;;;;;4.20;2.80;;;;;;;5.56;79.30;98899.68;129938;1259;114699;-63
2024/02/07 14:48:31;;;;;;;4.10;2.40;;;;;;;5.57;79.44;98897.35;129654;1278;114809;-63
2024/02/07 14:51:33;;;;;;;3.40;1.70;;;;;;;5.57;79.33;98898.57;129801;1258;114905;-63
2024/02/07 14:54:36;;;;;;;3.60;1.80;;;;;;;5.54;79.17;98907.95;129830;1278;114642;-63
2024/02/07 14:57:38;;;;;;;2.70;1.70;;;;;;;5.52;79.46;98906.48;129902;1257;115322;-63
2024/02/07 15:00:40;;;;;;;5.10;2.90;;;;;;;5.51;79.44;98919.84;129624;1278;128409;-63
2024/02/07 15:03:42;;;;;;;4.70;2.40;;;;;;;5.47;79.64;98924.42;129924;1259;114743;-62
2024/02/07 15:06:45;;;;;;;3.80;1.80;;;;;;;5.46;79.52;98925.16;129930;1256;114757;-62
2024/02/07 15:09:47;;;;;;;6.00;3.80;;;;;;;5.42;79.50;98928.04;129628;1264;114812;-62
2024/02/07 15:12:49;;;;;;;5.90;2.90;;;;;;;5.38;79.67;98918.49;129902;1259;114779;-62
2024/02/07 15:15:57;;;;;;;7.40;4.10;;;;;;;5.35;79.31;98915.83;129676;1278;114803;-62